Time;durP1;ratioP1;P1;durP2;ratioP2;P2;SDS_P1;SDS_P2;PMS_P1;PMS_P2;Temp;Humidity;BMP_temperature;BMP_pressure;BME280_temperature;BME280_humidity;BME280_pressure;Samples;Min_cycle;Max_cycle;Signal;HPM_P1;HPM_P2
2023/01/04 00:01:09;;;;;;;5.20;2.03;;;5.70;99.90;;;;;;5057047;28;20512;-83
2023/01/04 00:03:35;;;;;;;7.30;2.03;;;5.70;99.90;;;;;;5064142;28;20267;-82
2023/01/04 00:06:05;;;;;;;3.47;1.90;;;5.70;99.90;;;;;;5076963;28;20299;-89
2023/01/04 00:08:30;;;;;;;5.83;1.80;;;5.60;99.90;;;;;;5076863;28;20192;-92
2023/01/04 00:11:01;;;;;;;4.83;1.70;;;5.70;99.90;;;;;;5075684;28;20185;-85
2023/01/04 00:13:27;;;;;;;4.90;1.67;;;5.60;99.90;;;;;;5076849;28;20173;-85
2023/01/04 00:15:52;;;;;;;8.30;2.17;;;5.70;99.90;;;;;;5075602;28;20963;-83
2023/01/04 00:18:18;;;;;;;6.70;2.30;;;5.60;99.90;;;;;;5076541;28;20189;-81
2023/01/04 00:20:44;;;;;;;8.63;1.77;;;5.60;99.90;;;;;;5077035;28;20268;-80
2023/01/04 00:23:09;;;;;;;2.87;1.63;;;5.50;99.90;;;;;;5076548;28;20174;-82
2023/01/04 00:25:37;;;;;;;6.83;1.77;;;5.50;99.90;;;;;;5076674;28;20251;-83
2023/01/04 00:28:03;;;;;;;5.10;1.67;;;5.50;99.90;;;;;;5076502;28;20181;-82
2023/01/04 00:30:29;;;;;;;2.77;1.80;;;5.40;99.90;;;;;;5075097;28;20216;-82
2023/01/04 00:32:57;;;;;;;4.53;1.70;;;5.50;99.90;;;;;;5076405;28;20180;-81
2023/01/04 00:35:22;;;;;;;5.70;2.20;;;5.40;99.90;;;;;;5076100;28;20169;-82
2023/01/04 00:37:48;;;;;;;4.57;1.90;;;5.40;99.90;;;;;;5076687;28;20188;-83
2023/01/04 00:40:14;;;;;;;6.37;1.67;;;5.30;99.90;;;;;;5075254;28;20264;-83
2023/01/04 00:42:41;;;;;;;3.30;1.50;;;5.30;99.90;;;;;;5075005;28;20225;-83
2023/01/04 00:45:07;;;;;;;6.50;1.97;;;5.30;99.90;;;;;;5076585;28;20154;-82
2023/01/04 00:47:33;;;;;;;4.17;1.70;;;5.40;99.90;;;;;;5076134;28;20620;-82
2023/01/04 00:49:59;;;;;;;5.97;1.60;;;5.30;99.90;;;;;;5075988;28;20201;-82
2023/01/04 00:52:26;;;;;;;6.77;1.67;;;5.30;99.90;;;;;;5075942;28;20169;-82
2023/01/04 00:54:51;;;;;;;5.27;1.67;;;5.30;99.90;;;;;;5076232;28;20177;-86
2023/01/04 00:57:17;;;;;;;3.27;1.53;;;5.30;99.90;;;;;;5076209;28;20170;-83
2023/01/04 00:59:43;;;;;;;6.27;1.83;;;5.30;99.90;;;;;;5076218;28;20177;-83
2023/01/04 01:02:09;;;;;;;3.97;1.37;;;5.30;99.90;;;;;;5075812;28;20173;-81
2023/01/04 01:07:14;;;;;;;4.17;1.60;;;5.30;99.90;;;;;;5393213;22;20655;-85
2023/01/04 01:09:40;;;;;;;4.90;1.57;;;5.30;99.90;;;;;;5036631;28;20209;-83
2023/01/04 01:12:05;;;;;;;3.60;1.70;;;5.20;99.90;;;;;;5036333;28;20202;-87
2023/01/04 01:14:31;;;;;;;4.90;1.77;;;5.30;99.90;;;;;;5036311;28;20170;-93
2023/01/04 01:16:57;;;;;;;2.83;1.60;;;5.30;99.90;;;;;;5036346;28;20182;-83
2023/01/04 01:19:24;;;;;;;3.20;1.70;;;5.40;99.90;;;;;;5036398;28;20167;-81
2023/01/04 01:21:50;;;;;;;5.33;1.97;;;5.50;99.90;;;;;;5036175;28;20175;-96
2023/01/04 01:24:18;;;;;;;5.97;2.20;;;5.50;99.90;;;;;;5035725;28;20193;-96
2023/01/04 01:26:44;;;;;;;5.17;2.07;;;5.60;99.90;;;;;;5035075;28;20651;-96
2023/01/04 01:29:15;;;;;;;6.00;1.90;;;5.60;99.90;;;;;;5034657;28;20198;-94
2023/01/04 01:31:41;;;;;;;4.63;1.67;;;5.70;99.90;;;;;;5034645;28;20523;-96
2023/01/04 01:34:07;;;;;;;4.70;1.60;;;5.70;99.90;;;;;;5035752;28;20174;-88
2023/01/04 01:36:33;;;;;;;6.27;2.03;;;5.80;99.90;;;;;;5035332;28;20269;-95
2023/01/04 01:38:59;;;;;;;3.97;1.53;;;5.80;99.90;;;;;;5035564;28;20253;-91
2023/01/04 01:41:30;;;;;;;3.90;1.73;;;5.80;99.90;;;;;;5035840;28;20266;-92
2023/01/04 01:44:03;;;;;;;6.10;1.50;;;5.90;99.90;;;;;;5035924;28;20171;-96
2023/01/04 01:46:40;;;;;;;4.67;1.43;;;6.00;99.90;;;;;;5035745;28;20187;-90
2023/01/04 01:49:28;;;;;;;5.90;2.50;;;6.00;99.90;;;;;;5035648;28;20194;-95
2023/01/04 01:51:58;;;;;;;7.80;1.70;;;6.00;99.90;;;;;;5035828;28;20249;-96
2023/01/04 01:54:30;;;;;;;3.73;1.60;;;6.00;99.90;;;;;;5035109;28;20265;-90
2023/01/04 01:56:59;;;;;;;5.37;1.57;;;6.00;99.90;;;;;;5035471;28;20162;-93
2023/01/04 01:59:26;;;;;;;5.33;1.90;;;6.00;99.90;;;;;;5035699;28;20182;-93
2023/01/04 02:01:52;;;;;;;4.50;1.70;;;6.00;99.90;;;;;;5035634;28;20246;-92
2023/01/04 02:04:17;;;;;;;5.20;1.83;;;6.10;99.90;;;;;;5034211;28;20269;-83
2023/01/04 02:06:48;;;;;;;3.57;1.50;;;6.10;99.90;;;;;;5035136;28;20579;-82
2023/01/04 02:09:16;;;;;;;5.80;1.93;;;6.10;99.90;;;;;;5034968;28;20193;-82
2023/01/04 02:11:41;;;;;;;5.80;1.60;;;6.10;99.90;;;;;;5035570;28;20851;-84
2023/01/04 02:14:28;;;;;;;4.37;1.60;;;6.10;99.90;;;;;;5034399;28;20236;-82
2023/01/04 02:16:59;;;;;;;7.73;1.90;;;6.10;99.90;;;;;;5035430;28;20167;-83
2023/01/04 02:19:43;;;;;;;3.93;1.60;;;6.10;99.90;;;;;;5034386;28;20197;-88
2023/01/04 02:22:46;;;;;;;5.20;1.97;;;6.10;99.90;;;;;;5035212;28;20158;-82
2023/01/04 02:25:30;;;;;;;6.17;1.90;;;6.10;99.90;;;;;;5035304;28;20232;-96
2023/01/04 02:28:20;;;;;;;3.27;1.73;;;6.20;99.90;;;;;;5035122;28;20175;-96
2023/01/04 02:31:08;;;;;;;6.57;2.40;;;6.20;99.90;;;;;;5034989;28;20178;-91
2023/01/04 02:33:59;;;;;;;6.00;2.23;;;6.20;99.90;;;;;;5034930;28;20162;-94
2023/01/04 02:36:33;;;;;;;8.67;2.93;;;6.30;99.90;;;;;;5033659;28;20193;-91
2023/01/04 02:39:18;;;;;;;5.53;2.20;;;6.30;99.90;;;;;;5033491;28;20170;-93
2023/01/04 02:41:57;;;;;;;7.17;2.30;;;6.30;99.90;;;;;;5034780;28;20243;-95
2023/01/04 02:44:56;;;;;;;5.27;1.90;;;6.30;99.90;;;;;;5033740;28;20413;-93
2023/01/04 02:50:29;;;;;;;6.40;2.53;;;6.30;99.90;;;;;;5034984;28;20166;-96
2023/01/04 02:50:31;;;;;;;8.07;2.20;;;6.30;99.90;;;;;;5035278;28;20210;-83
2023/01/04 02:53:08;;;;;;;6.03;2.10;;;6.20;99.90;;;;;;5034567;28;20601;-83
2023/01/04 02:56:06;;;;;;;6.50;2.10;;;6.20;99.90;;;;;;5034282;28;20624;-81
2023/01/04 02:58:53;;;;;;;7.67;2.07;;;6.20;99.90;;;;;;5033875;28;20232;-92
2023/01/04 03:08:45;;;;;;;6.53;2.10;;;6.40;99.90;;;;;;5034016;28;20239;-81
2023/01/04 03:14:15;;;;;;;4.10;1.70;;;6.50;99.90;;;;;;5033468;28;20205;-82
2023/01/04 03:16:42;;;;;;;10.07;2.10;;;6.60;99.90;;;;;;5033769;28;20198;-88
2023/01/04 03:19:10;;;;;;;5.77;2.07;;;6.60;99.90;;;;;;5036745;28;20182;-83
2023/01/04 03:21:43;;;;;;;7.57;2.03;;;6.70;99.90;;;;;;5038019;28;20189;-86
2023/01/04 03:36:12;;;;;;;5.43;2.10;;;6.90;99.90;;;;;;5038256;28;20170;-88
2023/01/04 03:50:37;;;;;;;5.93;1.90;;;7.00;99.90;;;;;;5038848;28;20297;-94
2023/01/04 03:53:04;;;;;;;6.03;2.43;;;7.10;99.90;;;;;;5039019;28;20173;-94
2023/01/04 03:55:33;;;;;;;5.87;1.97;;;7.10;99.90;;;;;;5037950;28;20178;-93
2023/01/04 03:58:00;;;;;;;3.97;2.00;;;7.20;99.90;;;;;;5038696;28;20628;-90
2023/01/04 04:00:26;;;;;;;5.80;2.23;;;7.20;99.90;;;;;;5037958;28;20174;-93
2023/01/04 04:02:52;;;;;;;3.60;1.80;;;7.20;99.90;;;;;;5038616;28;20237;-93
2023/01/04 04:10:51;;;;;;;4.23;1.97;;;7.20;99.90;;;;;;5039271;28;20213;-96
2023/01/04 04:13:17;;;;;;;5.03;1.53;;;7.30;99.90;;;;;;5037897;28;20182;-94
2023/01/04 04:15:43;;;;;;;3.43;1.70;;;7.20;99.90;;;;;;5038735;28;20579;-96
2023/01/04 04:18:10;;;;;;;5.00;1.57;;;7.20;99.90;;;;;;5038827;28;20177;-84
2023/01/04 04:20:36;;;;;;;6.93;1.90;;;7.20;99.90;;;;;;5037046;28;20181;-94
2023/01/04 04:23:02;;;;;;;5.70;1.60;;;7.30;99.90;;;;;;5037596;28;20732;-96
2023/01/04 04:25:28;;;;;;;7.60;2.30;;;7.20;99.90;;;;;;5037916;28;20227;-93
2023/01/04 04:27:54;;;;;;;8.90;2.10;;;7.20;99.90;;;;;;5036144;28;20219;-92
2023/01/04 04:30:29;;;;;;;5.87;2.07;;;7.10;99.90;;;;;;5037726;28;20233;-93
2023/01/04 04:32:55;;;;;;;6.57;2.17;;;7.00;99.90;;;;;;5037685;28;20253;-90
2023/01/04 04:35:21;;;;;;;8.40;2.27;;;7.00;99.90;;;;;;5036536;28;20232;-91
2023/01/04 04:37:46;;;;;;;7.50;1.90;;;7.00;99.90;;;;;;5037288;28;20175;-91
2023/01/04 04:41:37;;;;;;;7.77;2.27;;;6.90;99.90;;;;;;5036440;28;20209;-86
2023/01/04 04:42:58;;;;;;;5.30;2.20;;;7.00;99.90;;;;;;5036502;28;20174;-85
2023/01/04 04:45:23;;;;;;;5.93;2.10;;;6.90;99.90;;;;;;5036462;28;20208;-88
2023/01/04 04:47:49;;;;;;;8.23;2.33;;;7.00;99.90;;;;;;5035327;28;20265;-85
2023/01/04 04:50:18;;;;;;;4.37;2.07;;;6.90;99.90;;;;;;5035378;28;20210;-85
2023/01/04 04:52:43;;;;;;;5.37;2.03;;;6.90;99.90;;;;;;5035151;28;20227;-84
2023/01/04 04:55:09;;;;;;;5.37;2.30;;;6.90;99.90;;;;;;5036378;28;20185;-84
2023/01/04 04:57:35;;;;;;;4.70;2.00;;;6.90;99.90;;;;;;5034978;28;20178;-82
2023/01/04 05:00:01;;;;;;;5.70;1.90;;;6.90;99.90;;;;;;5035533;28;20193;-87
2023/01/04 05:02:27;;;;;;;4.40;2.20;;;6.90;99.90;;;;;;5035124;28;20210;-82
2023/01/04 05:04:53;;;;;;;10.23;2.60;;;6.90;99.90;;;;;;5036458;28;20209;-85
2023/01/04 05:07:18;;;;;;;11.40;2.40;;;6.90;99.90;;;;;;5034911;28;20651;-89
2023/01/04 05:09:44;;;;;;;4.13;1.93;;;6.90;99.90;;;;;;5035062;28;20686;-86
2023/01/04 05:14:56;;;;;;;8.40;2.37;;;6.90;99.90;;;;;;5036221;28;20197;-84
2023/01/04 05:17:21;;;;;;;3.83;1.93;;;6.90;99.90;;;;;;5034807;28;20182;-85
2023/01/04 05:19:47;;;;;;;6.93;1.87;;;6.90;99.90;;;;;;5034505;28;20205;-84
2023/01/04 05:22:12;;;;;;;3.30;1.70;;;6.90;99.90;;;;;;5034647;28;20213;-89
2023/01/04 05:24:38;;;;;;;3.57;1.83;;;7.00;99.90;;;;;;5034189;28;20190;-91
2023/01/04 05:27:04;;;;;;;4.37;1.80;;;7.00;99.90;;;;;;5034479;28;20182;-85
2023/01/04 05:32:14;;;;;;;3.47;1.60;;;7.00;99.90;;;;;;5036496;28;20341;-87
2023/01/04 05:34:40;;;;;;;5.23;1.67;;;6.90;99.90;;;;;;5035897;28;20214;-88
2023/01/04 05:37:06;;;;;;;3.07;1.70;;;6.90;99.90;;;;;;5036184;28;20573;-90
2023/01/04 05:39:33;;;;;;;3.83;1.93;;;7.00;99.90;;;;;;5033325;28;20261;-89
2023/01/04 05:44:42;;;;;;;5.33;1.73;;;7.10;99.90;;;;;;5036101;28;20220;-89
2023/01/04 05:47:08;;;;;;;3.67;1.87;;;7.00;99.90;;;;;;5035587;28;20613;-85
2023/01/04 05:49:34;;;;;;;4.37;1.80;;;7.00;99.90;;;;;;5035820;28;20217;-85
2023/01/04 05:51:59;;;;;;;3.60;1.60;;;7.00;99.90;;;;;;5034473;28;20170;-85
2023/01/04 05:54:25;;;;;;;5.83;1.60;;;7.00;99.90;;;;;;5034009;28;20606;-90
2023/01/04 05:56:50;;;;;;;4.27;1.50;;;7.10;99.90;;;;;;5034257;28;20178;-83
2023/01/04 05:59:16;;;;;;;3.53;1.80;;;7.10;99.90;;;;;;5035708;28;20182;-85
2023/01/04 06:01:42;;;;;;;4.73;1.80;;;7.10;99.90;;;;;;5034540;28;20175;-90
2023/01/04 06:04:07;;;;;;;5.60;2.10;;;7.10;99.90;;;;;;5034262;28;20183;-91
2023/01/04 06:06:33;;;;;;;7.13;2.17;;;7.10;99.90;;;;;;5033718;28;20672;-84
2023/01/04 06:08:59;;;;;;;4.53;1.70;;;7.20;99.90;;;;;;5035331;28;20202;-85
2023/01/04 06:11:24;;;;;;;2.73;1.43;;;7.10;99.90;;;;;;5033811;28;20178;-83
2023/01/04 06:13:50;;;;;;;4.43;1.60;;;7.20;99.90;;;;;;5035098;28;20174;-89
2023/01/04 06:16:16;;;;;;;6.37;1.90;;;7.20;99.90;;;;;;5035015;28;20170;-87
2023/01/04 06:18:41;;;;;;;5.57;1.63;;;7.20;99.90;;;;;;5033796;28;20184;-90
2023/01/04 06:21:07;;;;;;;3.30;1.70;;;7.20;99.90;;;;;;5034857;28;20183;-89
2023/01/04 06:23:33;;;;;;;3.73;2.10;;;7.20;99.90;;;;;;5033941;28;20190;-86
2023/01/04 06:25:58;;;;;;;4.70;1.90;;;7.20;99.90;;;;;;5033719;28;20186;-84
2023/01/04 06:28:24;;;;;;;6.83;1.90;;;7.20;99.90;;;;;;5033809;28;20269;-85
2023/01/04 06:30:52;;;;;;;2.47;1.60;;;7.30;99.90;;;;;;5033846;28;20263;-87
2023/01/04 06:33:17;;;;;;;4.47;1.93;;;7.30;99.90;;;;;;5033215;28;20190;-87
2023/01/04 06:35:43;;;;;;;12.20;1.90;;;7.30;99.90;;;;;;5033801;28;20198;-83
2023/01/04 06:38:08;;;;;;;5.63;2.20;;;7.30;99.90;;;;;;5033630;28;20183;-85
2023/01/04 06:40:34;;;;;;;4.17;2.00;;;7.30;99.90;;;;;;5034604;28;20193;-88
2023/01/04 06:43:00;;;;;;;3.00;1.70;;;7.30;99.90;;;;;;5034177;28;20170;-94
2023/01/04 06:45:25;;;;;;;3.67;1.97;;;7.30;99.90;;;;;;5033717;28;20557;-91
2023/01/04 06:47:51;;;;;;;3.50;1.83;;;7.30;99.90;;;;;;5033557;28;20175;-92
2023/01/04 06:50:17;;;;;;;2.97;1.83;;;7.30;99.90;;;;;;5032915;28;20287;-93
2023/01/04 06:52:43;;;;;;;5.17;2.27;;;7.30;99.90;;;;;;5033329;28;20272;-84
2023/01/04 06:55:09;;;;;;;2.63;2.00;;;7.30;99.90;;;;;;5034737;28;20522;-86
2023/01/04 06:57:34;;;;;;;2.83;1.63;;;7.40;99.90;;;;;;5033160;28;20240;-88
2023/01/04 07:00:00;;;;;;;3.33;1.70;;;7.40;99.90;;;;;;5034561;28;20205;-84
2023/01/04 07:02:26;;;;;;;4.07;2.10;;;7.40;99.90;;;;;;5032992;28;20186;-83
2023/01/04 07:04:51;;;;;;;3.10;1.97;;;7.40;99.90;;;;;;5034283;28;20720;-92
2023/01/04 07:07:17;;;;;;;4.87;1.97;;;7.40;99.90;;;;;;5032921;28;20673;-86
2023/01/04 07:09:43;;;;;;;3.47;2.17;;;7.50;99.90;;;;;;5033089;28;20593;-85
2023/01/04 07:12:09;;;;;;;3.20;1.80;;;7.50;99.90;;;;;;5034823;28;20186;-85
2023/01/04 07:14:34;;;;;;;2.73;1.90;;;7.50;99.90;;;;;;5033136;28;20500;-83
2023/01/04 07:17:00;;;;;;;5.03;2.13;;;7.50;99.90;;;;;;5034354;28;20716;-85
2023/01/04 07:19:26;;;;;;;2.77;1.80;;;7.50;99.90;;;;;;5032948;28;20515;-89
2023/01/04 07:21:52;;;;;;;2.10;1.60;;;7.60;99.90;;;;;;5033115;28;20213;-92
2023/01/04 07:24:18;;;;;;;3.47;2.03;;;7.60;99.90;;;;;;5033119;28;20182;-91
2023/01/04 07:26:44;;;;;;;4.00;2.10;;;7.60;99.90;;;;;;5033121;28;20186;-92
2023/01/04 07:29:16;;;;;;;3.17;2.33;;;7.60;99.90;;;;;;5033573;28;20264;-86
2023/01/04 07:31:47;;;;;;;2.73;1.60;;;7.70;99.90;;;;;;5032613;28;20694;-91
2023/01/04 07:34:14;;;;;;;4.87;2.10;;;7.60;99.90;;;;;;5033993;28;20178;-91
2023/01/04 07:36:40;;;;;;;3.47;2.20;;;7.60;99.90;;;;;;5032816;28;20299;-86
2023/01/04 07:39:09;;;;;;;3.50;2.00;;;7.60;99.90;;;;;;5034294;28;20225;-89
2023/01/04 07:41:38;;;;;;;3.97;2.07;;;7.60;99.90;;;;;;5033026;28;20188;-91
2023/01/04 07:44:04;;;;;;;3.33;2.37;;;7.60;99.90;;;;;;5034133;28;20179;-87
2023/01/04 07:46:31;;;;;;;4.57;2.50;;;7.60;99.90;;;;;;5032955;28;20273;-88
2023/01/04 07:48:57;;;;;;;4.23;2.30;;;7.60;99.90;;;;;;5032755;28;20533;-92
2023/01/04 07:51:23;;;;;;;3.13;2.10;;;7.60;99.90;;;;;;5032885;28;20199;-88
2023/01/04 07:53:49;;;;;;;4.33;1.80;;;7.60;99.90;;;;;;5032596;28;20693;-87
2023/01/04 07:56:15;;;;;;;3.30;1.80;;;7.60;99.90;;;;;;5032571;28;20202;-89
2023/01/04 07:58:41;;;;;;;4.03;2.07;;;7.70;99.90;;;;;;5032921;28;20182;-85
2023/01/04 08:01:17;;;;;;;2.07;1.50;;;7.70;99.90;;;;;;5033512;28;20189;-84
2023/01/04 08:03:44;;;;;;;4.30;2.40;;;7.70;99.90;;;;;;5036149;28;20178;-84
2023/01/04 08:06:12;;;;;;;6.30;2.10;;;7.70;99.90;;;;;;5035791;28;20222;-84
2023/01/04 08:08:38;;;;;;;4.17;2.53;;;7.70;99.90;;;;;;5036321;28;20178;-89
2023/01/04 08:11:08;;;;;;;3.70;1.80;;;7.70;99.90;;;;;;5036125;28;20182;-84
2023/01/04 08:13:33;;;;;;;2.23;1.83;;;7.70;99.90;;;;;;5036597;28;20209;-89
2023/01/04 08:15:59;;;;;;;3.60;2.00;;;7.80;99.90;;;;;;5036121;28;20182;-85
2023/01/04 08:18:25;;;;;;;3.07;1.80;;;7.80;99.90;;;;;;5037011;28;20178;-85
2023/01/04 08:21:07;;;;;;;4.60;2.03;;;7.80;99.90;;;;;;5036191;28;20521;-91
2023/01/04 08:23:34;;;;;;;2.60;1.90;;;7.80;99.90;;;;;;5036064;28;20174;-93
2023/01/04 08:26:05;;;;;;;3.37;2.10;;;7.80;99.90;;;;;;5036103;28;20175;-87
2023/01/04 08:28:32;;;;;;;2.40;2.03;;;7.90;99.90;;;;;;5036171;28;20202;-87
2023/01/04 08:31:15;;;;;;;3.60;2.00;;;7.90;99.90;;;;;;5036242;28;20225;-85
2023/01/04 08:33:41;;;;;;;2.67;1.93;;;7.90;99.90;;;;;;5016648;28;20164;-89
2023/01/04 08:36:10;;;;;;;2.93;1.77;;;7.90;99.90;;;;;;5016031;28;20179;-92
2023/01/04 08:38:36;;;;;;;3.63;1.90;;;7.90;99.90;;;;;;5015706;28;20178;-87
2023/01/04 08:41:05;;;;;;;2.97;1.90;;;7.90;99.90;;;;;;5015727;28;20183;-90
2023/01/04 08:43:31;;;;;;;3.07;1.87;;;7.90;99.90;;;;;;5016080;28;20176;-84
2023/01/04 08:45:56;;;;;;;5.60;2.20;;;7.90;99.90;;;;;;5016292;28;20221;-93
2023/01/04 08:48:22;;;;;;;6.87;2.10;;;7.90;99.90;;;;;;5015745;28;20186;-85
2023/01/04 08:50:49;;;;;;;4.43;1.80;;;8.00;99.90;;;;;;5017381;28;20717;-89
2023/01/04 08:53:15;;;;;;;4.57;2.00;;;7.90;99.90;;;;;;5016066;28;20621;-90
2023/01/04 08:55:47;;;;;;;3.80;1.90;;;7.90;99.90;;;;;;5015998;28;20183;-87
2023/01/04 08:58:12;;;;;;;3.17;1.80;;;8.00;99.90;;;;;;5016284;28;20179;-86
2023/01/04 09:00:38;;;;;;;2.10;1.50;;;8.00;99.90;;;;;;5016927;28;20172;-85
2023/01/04 09:03:04;;;;;;;2.77;1.67;;;8.00;99.90;;;;;;5030084;28;20190;-90
2023/01/04 09:05:31;;;;;;;5.40;1.77;;;8.00;99.90;;;;;;5032429;28;20178;-87
2023/01/04 09:07:59;;;;;;;3.53;1.67;;;8.00;99.90;;;;;;5033932;28;20233;-85
2023/01/04 09:10:26;;;;;;;4.20;1.67;;;8.10;99.90;;;;;;5035297;28;20206;-90
2023/01/04 09:12:52;;;;;;;1.80;1.50;;;8.10;99.90;;;;;;5035270;28;20175;-89
2023/01/04 09:15:18;;;;;;;2.40;1.63;;;8.10;99.90;;;;;;5036192;28;20176;-89
2023/01/04 09:17:55;;;;;;;2.40;1.83;;;8.10;99.90;;;;;;5034605;28;20174;-92
2023/01/04 09:20:21;;;;;;;3.00;2.03;;;8.10;99.90;;;;;;5035006;28;20170;-92
2023/01/04 09:22:47;;;;;;;4.10;1.57;;;8.10;99.90;;;;;;5033954;28;20174;-90
2023/01/04 09:25:13;;;;;;;2.73;2.00;;;8.10;99.90;;;;;;5035669;28;20182;-90
2023/01/04 09:27:39;;;;;;;7.10;2.20;;;8.10;99.90;;;;;;5035810;28;20170;-89
2023/01/04 09:30:05;;;;;;;3.73;1.93;;;8.10;99.90;;;;;;5035524;28;20297;-87
2023/01/04 09:32:31;;;;;;;2.97;1.80;;;8.10;99.90;;;;;;5035164;28;20206;-86
2023/01/04 09:34:57;;;;;;;2.40;1.97;;;8.00;99.90;;;;;;5035048;28;20213;-86
2023/01/04 09:37:22;;;;;;;4.10;2.40;;;8.00;99.90;;;;;;5035412;28;20166;-86
2023/01/04 09:39:48;;;;;;;4.07;2.43;;;8.00;99.90;;;;;;5035222;28;20174;-87
2023/01/04 09:42:26;;;;;;;2.43;2.00;;;8.00;99.90;;;;;;5034482;28;20179;-89
2023/01/04 09:45:00;;;;;;;4.73;2.20;;;7.90;99.90;;;;;;5034592;28;20179;-87
2023/01/04 09:47:44;;;;;;;2.40;2.00;;;7.90;99.90;;;;;;5034108;28;20179;-87
2023/01/04 09:50:21;;;;;;;3.90;2.20;;;7.80;99.90;;;;;;5034891;28;20267;-88
2023/01/04 09:52:56;;;;;;;2.27;1.83;;;7.90;99.90;;;;;;5034866;28;20678;-87
2023/01/04 09:55:46;;;;;;;2.77;1.80;;;7.90;99.90;;;;;;5034457;28;20228;-86
2023/01/04 09:58:29;;;;;;;2.73;1.67;;;7.90;99.90;;;;;;5035772;28;20221;-86
2023/01/04 10:01:13;;;;;;;2.23;1.73;;;7.90;99.90;;;;;;5035774;28;20237;-91
2023/01/04 10:03:55;;;;;;;3.77;1.77;;;7.90;99.90;;;;;;5034504;28;20174;-88
2023/01/04 10:06:21;;;;;;;5.13;2.23;;;7.80;99.90;;;;;;5035287;28;20348;-90
2023/01/04 10:08:46;;;;;;;3.17;2.17;;;7.80;99.90;;;;;;5034582;28;21014;-91
2023/01/04 10:11:19;;;;;;;3.37;1.90;;;7.90;99.90;;;;;;5034693;28;20269;-91
2023/01/04 10:13:52;;;;;;;3.03;1.77;;;7.90;99.90;;;;;;5034804;28;20190;-92
2023/01/04 10:16:39;;;;;;;3.40;1.80;;;7.90;99.90;;;;;;5034281;28;20591;-89
2023/01/04 10:19:26;;;;;;;4.83;1.70;;;8.00;99.90;;;;;;5048304;28;20270;-89
2023/01/04 10:22:18;;;;;;;2.77;1.70;;;8.00;99.90;;;;;;5048406;28;20186;-88
2023/01/04 10:25:14;;;;;;;2.87;1.83;;;8.10;99.90;;;;;;5031531;28;20502;-92
2023/01/04 10:28:15;;;;;;;3.17;1.90;;;8.10;99.90;;;;;;5035180;28;20171;-93
2023/01/04 10:30:53;;;;;;;3.00;1.93;;;8.10;99.90;;;;;;5031025;28;20218;-91
2023/01/04 10:33:48;;;;;;;3.27;2.10;;;8.10;99.90;;;;;;5033898;28;20188;-90
2023/01/04 10:36:28;;;;;;;2.03;1.83;;;8.20;99.90;;;;;;5034112;28;20182;-91
2023/01/04 10:39:08;;;;;;;2.77;1.83;;;8.20;99.90;;;;;;5033725;28;20182;-90
2023/01/04 10:41:47;;;;;;;2.10;1.60;;;8.20;99.90;;;;;;5034276;28;20277;-90
2023/01/04 10:44:19;;;;;;;4.60;1.53;;;8.20;99.90;;;;;;5033975;28;20390;-90
2023/01/04 10:47:10;;;;;;;2.83;1.90;;;8.20;99.90;;;;;;5033836;28;20273;-90
2023/01/04 10:49:43;;;;;;;2.50;1.63;;;8.30;99.90;;;;;;5033915;28;20215;-84
2023/01/04 10:52:36;;;;;;;1.87;1.43;;;8.30;99.90;;;;;;5033884;28;20210;-89
2023/01/04 10:55:32;;;;;;;2.00;1.37;;;8.40;99.90;;;;;;5033803;28;20313;-89
2023/01/04 10:58:07;;;;;;;3.37;1.57;;;8.40;99.90;;;;;;5033243;28;20192;-91
2023/01/04 11:00:49;;;;;;;2.83;1.47;;;8.50;99.90;;;;;;5033763;28;20178;-91
2023/01/04 11:03:23;;;;;;;1.80;1.33;;;8.50;99.90;;;;;;5034857;28;20316;-92
2023/01/04 11:06:07;;;;;;;9.77;1.50;;;8.50;99.90;;;;;;5053591;28;20178;-92
2023/01/04 11:08:41;;;;;;;2.10;1.30;;;8.60;99.90;;;;;;5050685;28;20182;-91
2023/01/04 11:11:18;;;;;;;3.30;1.80;;;8.50;99.90;;;;;;5054025;28;20181;-92
2023/01/04 11:13:43;;;;;;;2.40;1.70;;;8.60;99.90;;;;;;5053919;28;20169;-89
2023/01/04 11:16:10;;;;;;;2.73;1.70;;;8.60;99.90;;;;;;5054347;28;20612;-94
2023/01/04 11:18:38;;;;;;;3.53;1.80;;;8.60;99.90;;;;;;5052803;28;20237;-87
2023/01/04 11:21:07;;;;;;;2.17;1.60;;;8.60;99.90;;;;;;5053056;28;20587;-90
2023/01/04 11:23:34;;;;;;;3.00;1.60;;;8.50;99.90;;;;;;5033537;28;20652;-89
2023/01/04 11:26:18;;;;;;;2.40;1.80;;;8.50;99.90;;;;;;5033213;28;20193;-86
2023/01/04 11:28:56;;;;;;;2.93;1.80;;;8.50;99.90;;;;;;5033649;28;20205;-91
2023/01/04 11:31:22;;;;;;;2.43;1.70;;;8.50;99.90;;;;;;5033343;28;20186;-90
2023/01/04 11:33:58;;;;;;;2.80;1.80;;;8.40;99.90;;;;;;5033125;28;20182;-87
2023/01/04 11:36:30;;;;;;;2.23;1.80;;;8.40;99.90;;;;;;5032961;28;20188;-86
2023/01/04 11:38:56;;;;;;;2.53;1.50;;;8.40;99.90;;;;;;5036429;28;20181;-90
2023/01/04 11:41:23;;;;;;;1.83;1.70;;;8.40;99.90;;;;;;5036994;28;20210;-83
2023/01/04 11:44:04;;;;;;;2.20;1.87;;;8.40;99.90;;;;;;5036693;28;20261;-86
2023/01/04 11:46:32;;;;;;;3.20;1.77;;;8.40;99.90;;;;;;5037699;28;20202;-88
2023/01/04 11:48:58;;;;;;;2.30;1.80;;;8.40;99.90;;;;;;5037019;28;20175;-88
2023/01/04 11:51:33;;;;;;;3.03;1.70;;;8.40;99.90;;;;;;5036899;28;20185;-87
2023/01/04 11:54:11;;;;;;;2.80;2.00;;;8.40;99.90;;;;;;5036491;28;20178;-88
2023/01/04 11:56:37;;;;;;;3.63;1.80;;;8.40;99.90;;;;;;5037683;28;20681;-90
2023/01/04 11:59:14;;;;;;;1.83;1.63;;;8.50;99.90;;;;;;5036813;28;20682;-91
2023/01/04 12:01:46;;;;;;;5.07;2.13;;;8.50;99.90;;;;;;5036635;28;20174;-88
2023/01/04 12:04:19;;;;;;;3.00;1.93;;;8.50;99.90;;;;;;5037321;28;20197;-89
2023/01/04 12:07:24;;;;;;;4.03;1.90;;;8.50;99.90;;;;;;5036451;28;20226;-88
2023/01/04 12:09:50;;;;;;;2.10;1.70;;;8.50;99.90;;;;;;5037085;28;20225;-87
2023/01/04 12:12:30;;;;;;;2.73;1.80;;;8.50;99.90;;;;;;5037701;28;20167;-92
2023/01/04 12:15:03;;;;;;;2.13;1.80;;;8.50;99.90;;;;;;5036390;28;20170;-87
2023/01/04 12:17:52;;;;;;;2.47;1.97;;;8.50;99.90;;;;;;5037651;28;20193;-89
2023/01/04 12:20:20;;;;;;;2.20;1.77;;;8.50;99.90;;;;;;5038274;28;20190;-86
2023/01/04 12:22:47;;;;;;;2.37;1.70;;;8.60;99.90;;;;;;5036314;28;20178;-89
2023/01/04 12:25:38;;;;;;;4.07;2.20;;;8.60;99.90;;;;;;5036831;28;20174;-85
2023/01/04 12:28:04;;;;;;;3.07;1.83;;;8.50;99.90;;;;;;5037712;28;20170;-89
2023/01/04 12:31:22;;;;;;;2.50;2.00;;;8.60;99.90;;;;;;5038068;28;20213;-87
2023/01/04 12:34:12;;;;;;;1.80;1.50;;;8.60;99.90;;;;;;5028251;28;20198;-91
2023/01/04 12:36:38;;;;;;;2.57;1.93;;;8.60;99.90;;;;;;5037719;28;20163;-88
2023/01/04 12:39:12;;;;;;;2.23;1.70;;;8.60;99.90;;;;;;5036379;28;20179;-85
2023/01/04 12:41:38;;;;;;;2.60;1.97;;;8.60;99.90;;;;;;5037422;28;20182;-91
2023/01/04 12:44:36;;;;;;;2.43;2.10;;;8.60;99.90;;;;;;5037967;28;20201;-88
2023/01/04 12:50:14;;;;;;;2.77;1.70;;;8.60;99.90;;;;;;5036995;28;20217;-88
2023/01/04 12:52:51;;;;;;;2.00;1.67;;;8.60;99.90;;;;;;5035664;28;20523;-90
2023/01/04 12:55:32;;;;;;;2.10;1.57;;;8.60;99.90;;;;;;5037446;28;20174;-88
2023/01/04 12:58:02;;;;;;;2.13;1.93;;;8.60;99.90;;;;;;5036276;28;20671;-89
2023/01/04 13:01:03;;;;;;;3.73;1.57;;;8.60;99.90;;;;;;5036960;28;20194;-89
2023/01/04 13:03:31;;;;;;;1.20;1.10;;;8.70;99.90;;;;;;4998797;28;20189;-87
2023/01/04 13:06:04;;;;;;;1.60;1.30;;;8.70;99.90;;;;;;5011925;28;20231;-92
2023/01/04 13:08:32;;;;;;;1.57;1.10;;;8.70;99.90;;;;;;5015630;28;20623;-88
2023/01/04 13:10:59;;;;;;;2.57;1.57;;;8.70;99.90;;;;;;5016160;28;20222;-88
2023/01/04 13:13:55;;;;;;;1.60;1.33;;;8.70;99.90;;;;;;5016887;28;20178;-90
2023/01/04 13:16:29;;;;;;;2.53;1.13;;;8.70;99.90;;;;;;5016039;28;20606;-87
2023/01/04 13:18:57;;;;;;;1.20;1.10;;;8.70;99.90;;;;;;5016104;28;20217;-90
2023/01/04 13:21:30;;;;;;;1.60;1.17;;;8.80;99.90;;;;;;5015751;28;20183;-91
2023/01/04 13:24:03;;;;;;;2.90;1.10;;;8.80;99.90;;;;;;5015593;28;20263;-93
2023/01/04 13:26:44;;;;;;;1.40;1.30;;;8.80;99.90;;;;;;5015896;28;20182;-89
2023/01/04 13:29:18;;;;;;;1.93;1.53;;;8.80;99.90;;;;;;5015284;28;20199;-94
2023/01/04 13:32:04;;;;;;;1.80;1.10;;;8.80;99.90;;;;;;5015788;28;20195;-85
2023/01/04 13:34:42;;;;;;;0.90;0.80;;;8.80;99.90;;;;;;5028017;28;20186;-95
2023/01/04 13:37:12;;;;;;;2.03;1.20;;;8.80;99.90;;;;;;5034921;28;20577;-94
2023/01/04 13:39:41;;;;;;;1.20;1.10;;;8.90;99.90;;;;;;5036506;28;20280;-93
2023/01/04 13:42:23;;;;;;;1.30;0.90;;;8.90;99.90;;;;;;5036139;28;20175;-91
2023/01/04 13:45:16;;;;;;;1.03;0.93;;;8.90;99.90;;;;;;5035746;28;20177;-89
2023/01/04 13:47:43;;;;;;;1.20;1.10;;;8.90;99.90;;;;;;5035545;28;20174;-91
2023/01/04 13:50:38;;;;;;;1.40;1.13;;;8.90;99.90;;;;;;5035759;28;20319;-91
2023/01/04 13:53:17;;;;;;;1.43;0.90;;;8.90;99.90;;;;;;5034554;28;20533;-92
2023/01/04 13:55:42;;;;;;;1.07;0.90;;;8.90;99.90;;;;;;5035797;28;20182;-91
2023/01/04 13:58:21;;;;;;;4.03;0.90;;;9.00;99.90;;;;;;5034543;28;20210;-91
2023/01/04 14:00:51;;;;;;;1.03;0.80;;;9.00;99.90;;;;;;5035550;28;20926;-88
2023/01/04 14:03:25;;;;;;;0.80;0.53;;;9.00;99.90;;;;;;5035152;28;20696;-95
2023/01/04 14:05:54;;;;;;;1.17;0.90;;;9.10;99.90;;;;;;5034541;28;20574;-93
2023/01/04 14:08:33;;;;;;;0.80;0.80;;;9.10;99.90;;;;;;5032176;28;20190;-95
2023/01/04 14:10:59;;;;;;;1.60;0.90;;;9.10;99.90;;;;;;5032709;28;20586;-90
2023/01/04 14:13:28;;;;;;;2.00;1.00;;;9.20;99.90;;;;;;5022456;28;20224;-86